sensor_id;sensor_type;location;lat;lon;timestamp;pressure;altitude;pressure_sealevel;temperature;humidity
68366;BME280;55283;51.466;5.478;2023-02-17T00:01:55;101848.09;;;20.37;45.25
68366;BME280;55283;51.466;5.478;2023-02-17T00:04:21;101839.69;;;20.37;44.94
68366;BME280;55283;51.466;5.478;2023-02-17T00:06:46;101846.88;;;20.38;45.17
68366;BME280;55283;51.466;5.478;2023-02-17T00:09:11;101844.50;;;20.33;45.06
68366;BME280;55283;51.466;5.478;2023-02-17T00:11:37;101852.06;;;20.40;44.92
68366;BME280;55283;51.466;5.478;2023-02-17T00:14:02;101850.47;;;20.39;44.95
68366;BME280;55283;51.466;5.478;2023-02-17T00:16:28;101849.69;;;20.38;45.10
68366;BME280;55283;51.466;5.478;2023-02-17T00:18:56;101846.47;;;20.40;45.12
68366;BME280;55283;51.466;5.478;2023-02-17T00:21:24;101839.69;;;20.37;45.10
68366;BME280;55283;51.466;5.478;2023-02-17T00:23:51;101832.09;;;20.34;44.89
68366;BME280;55283;51.466;5.478;2023-02-17T00:26:17;101823.38;;;20.25;44.93
68366;BME280;55283;51.466;5.478;2023-02-17T00:28:43;101836.88;;;20.33;44.95
68366;BME280;55283;51.466;5.478;2023-02-17T00:31:12;101845.66;;;20.35;44.90
68366;BME280;55283;51.466;5.478;2023-02-17T00:33:38;101832.88;;;20.34;45.11
68366;BME280;55283;51.466;5.478;2023-02-17T00:36:05;101828.13;;;20.31;45.15
68366;BME280;55283;51.466;5.478;2023-02-17T00:38:31;101818.56;;;20.29;44.97
68366;BME280;55283;51.466;5.478;2023-02-17T00:40:57;101837.28;;;20.35;45.13
68366;BME280;55283;51.466;5.478;2023-02-17T00:43:22;101824.50;;;20.34;45.02
68366;BME280;55283;51.466;5.478;2023-02-17T00:45:48;101811.31;;;20.31;44.95
68366;BME280;55283;51.466;5.478;2023-02-17T00:48:13;101808.09;;;20.33;45.05
68366;BME280;55283;51.466;5.478;2023-02-17T00:50:38;101812.50;;;20.34;45.01
68366;BME280;55283;51.466;5.478;2023-02-17T00:53:04;101798.56;;;20.27;44.96
68366;BME280;55283;51.466;5.478;2023-02-17T00:55:29;101805.28;;;20.37;44.82
68366;BME280;55283;51.466;5.478;2023-02-17T00:57:54;101807.69;;;20.34;44.78
68366;BME280;55283;51.466;5.478;2023-02-17T01:00:20;101804.13;;;20.30;45.02
68366;BME280;55283;51.466;5.478;2023-02-17T01:02:45;101802.09;;;20.34;44.96
68366;BME280;55283;51.466;5.478;2023-02-17T01:05:11;101803.31;;;20.30;45.09
68366;BME280;55283;51.466;5.478;2023-02-17T01:07:36;101801.69;;;20.32;44.76
68366;BME280;55283;51.466;5.478;2023-02-17T01:10:03;101808.09;;;20.33;45.08
68366;BME280;55283;51.466;5.478;2023-02-17T01:12:29;101806.91;;;20.34;44.93
68366;BME280;55283;51.466;5.478;2023-02-17T01:14:54;101806.50;;;20.32;44.84
68366;BME280;55283;51.466;5.478;2023-02-17T01:17:20;101807.31;;;20.32;44.90
68366;BME280;55283;51.466;5.478;2023-02-17T01:19:45;101787.75;;;20.29;44.81
68366;BME280;55283;51.466;5.478;2023-02-17T01:22:10;101802.50;;;20.33;44.66
68366;BME280;55283;51.466;5.478;2023-02-17T01:24:37;101793.75;;;20.31;44.75
68366;BME280;55283;51.466;5.478;2023-02-17T01:27:03;101784.66;;;20.20;44.92
68366;BME280;55283;51.466;5.478;2023-02-17T01:29:28;101815.31;;;20.30;44.82
68366;BME280;55283;51.466;5.478;2023-02-17T01:31:54;101808.88;;;20.33;44.67
68366;BME280;55283;51.466;5.478;2023-02-17T01:34:19;101799.34;;;20.31;44.81
68366;BME280;55283;51.466;5.478;2023-02-17T01:36:45;101799.34;;;20.31;44.76
68366;BME280;55283;51.466;5.478;2023-02-17T01:39:15;101804.50;;;20.32;44.78
68366;BME280;55283;51.466;5.478;2023-02-17T01:41:41;101813.34;;;20.31;44.68
68366;BME280;55283;51.466;5.478;2023-02-17T01:46:33;101808.88;;;20.33;44.70
68366;BME280;55283;51.466;5.478;2023-02-17T01:48:59;101806.91;;;20.34;44.72
68366;BME280;55283;51.466;5.478;2023-02-17T01:51:28;101804.88;;;20.34;44.78
68366;BME280;55283;51.466;5.478;2023-02-17T01:54:07;101802.94;;;20.31;44.65
68366;BME280;55283;51.466;5.478;2023-02-17T01:56:36;101804.94;;;20.31;44.63
68366;BME280;55283;51.466;5.478;2023-02-17T01:59:09;101797.72;;;20.30;44.80
68366;BME280;55283;51.466;5.478;2023-02-17T02:01:36;101796.53;;;20.31;44.63
68366;BME280;55283;51.466;5.478;2023-02-17T02:04:03;101806.19;;;20.26;44.85
68366;BME280;55283;51.466;5.478;2023-02-17T02:06:32;101799.84;;;20.22;44.86
68366;BME280;55283;51.466;5.478;2023-02-17T02:09:06;101802.19;;;20.24;44.94
68366;BME280;55283;51.466;5.478;2023-02-17T02:11:32;101807.34;;;20.29;44.89
68366;BME280;55283;51.466;5.478;2023-02-17T02:13:58;101809.72;;;20.30;44.62
68366;BME280;55283;51.466;5.478;2023-02-17T02:18:59;101806.13;;;20.30;44.71
68366;BME280;55283;51.466;5.478;2023-02-17T02:27:23;101794.13;;;20.29;44.90
68366;BME280;55283;51.466;5.478;2023-02-17T02:40:51;101773.81;;;20.25;44.59
68366;BME280;55283;51.466;5.478;2023-02-17T02:43:19;101781.38;;;20.25;44.83
68366;BME280;55283;51.466;5.478;2023-02-17T02:45:44;101778.56;;;20.25;44.76
68366;BME280;55283;51.466;5.478;2023-02-17T02:48:10;101756.19;;;20.25;44.59
68366;BME280;55283;51.466;5.478;2023-02-17T02:51:25;101746.59;;;20.26;44.78
68366;BME280;55283;51.466;5.478;2023-02-17T02:53:49;101757.78;;;20.26;44.70
68366;BME280;55283;51.466;5.478;2023-02-17T02:56:48;101741.00;;;20.26;44.63
68366;BME280;55283;51.466;5.478;2023-02-17T02:59:46;101741.78;;;20.26;44.73
68366;BME280;55283;51.466;5.478;2023-02-17T03:10:44;101707.44;;;20.22;44.59
68366;BME280;55283;51.466;5.478;2023-02-17T03:13:10;101706.16;;;20.27;44.61
68366;BME280;55283;51.466;5.478;2023-02-17T03:15:36;101714.56;;;20.27;44.43
68366;BME280;55283;51.466;5.478;2023-02-17T03:18:02;101705.78;;;20.25;44.52
68366;BME280;55283;51.466;5.478;2023-02-17T03:20:32;101706.59;;;20.25;44.66
68366;BME280;55283;51.466;5.478;2023-02-17T03:22:59;101717.41;;;20.23;44.66
68366;BME280;55283;51.466;5.478;2023-02-17T03:25:24;101697.88;;;20.20;44.52
68366;BME280;55283;51.466;5.478;2023-02-17T03:27:50;101708.97;;;20.27;44.64
68366;BME280;55283;51.466;5.478;2023-02-17T03:30:15;101702.19;;;20.28;44.59
68366;BME280;55283;51.466;5.478;2023-02-17T03:32:41;101714.56;;;20.27;44.44
68366;BME280;55283;51.466;5.478;2023-02-17T03:35:07;101721.00;;;20.24;44.48
68366;BME280;55283;51.466;5.478;2023-02-17T03:37:33;101715.84;;;20.22;44.59
68366;BME280;55283;51.466;5.478;2023-02-17T03:39:58;101730.19;;;20.24;44.60
68366;BME280;55283;51.466;5.478;2023-02-17T03:42:24;101729.78;;;20.26;44.56
68366;BME280;55283;51.466;5.478;2023-02-17T03:44:49;101719.38;;;20.26;44.39
68366;BME280;55283;51.466;5.478;2023-02-17T03:47:15;101713.38;;;20.28;44.46
68366;BME280;55283;51.466;5.478;2023-02-17T03:49:40;101711.38;;;20.25;44.47
68366;BME280;55283;51.466;5.478;2023-02-17T03:52:06;101711.44;;;20.21;44.48
68366;BME280;55283;51.466;5.478;2023-02-17T03:54:31;101701.84;;;20.22;44.52
68366;BME280;55283;51.466;5.478;2023-02-17T03:56:57;101691.44;;;20.23;44.43
68366;BME280;55283;51.466;5.478;2023-02-17T03:59:23;101691.84;;;20.21;44.62
68366;BME280;55283;51.466;5.478;2023-02-17T04:01:49;101696.19;;;20.26;44.42
68366;BME280;55283;51.466;5.478;2023-02-17T04:04:14;101701.00;;;20.25;44.69
68366;BME280;55283;51.466;5.478;2023-02-17T04:06:40;101708.97;;;20.27;44.44
68366;BME280;55283;51.466;5.478;2023-02-17T04:09:05;101701.03;;;20.22;44.44
68366;BME280;55283;51.466;5.478;2023-02-17T04:11:30;101713.44;;;20.21;44.50
68366;BME280;55283;51.466;5.478;2023-02-17T04:13:56;101713.88;;;20.19;44.44
68366;BME280;55283;51.466;5.478;2023-02-17T04:16:21;101723.41;;;20.25;44.33
68366;BME280;55283;51.466;5.478;2023-02-17T04:18:47;101711.38;;;20.25;44.53
68366;BME280;55283;51.466;5.478;2023-02-17T04:21:12;101721.38;;;20.26;44.64
68366;BME280;55283;51.466;5.478;2023-02-17T04:23:38;101737.41;;;20.25;44.79
68366;BME280;55283;51.466;5.478;2023-02-17T04:26:05;101730.97;;;20.25;44.49
68366;BME280;55283;51.466;5.478;2023-02-17T04:28:31;101722.97;;;20.27;44.30
68366;BME280;55283;51.466;5.478;2023-02-17T04:30:58;101708.69;;;20.18;44.37
68366;BME280;55283;51.466;5.478;2023-02-17T04:33:24;101708.69;;;20.18;44.64
68366;BME280;55283;51.466;5.478;2023-02-17T04:35:50;101734.59;;;20.25;44.47
68366;BME280;55283;51.466;5.478;2023-02-17T04:38:16;101732.22;;;20.24;44.41
68366;BME280;55283;51.466;5.478;2023-02-17T04:40:41;101727.41;;;20.24;44.36
68366;BME280;55283;51.466;5.478;2023-02-17T04:43:07;101717.47;;;20.20;44.49
68366;BME280;55283;51.466;5.478;2023-02-17T04:45:34;101718.72;;;20.15;44.48
68366;BME280;55283;51.466;5.478;2023-02-17T04:48:00;101730.63;;;20.23;44.52
68366;BME280;55283;51.466;5.478;2023-02-17T04:50:26;101731.81;;;20.22;44.51
68366;BME280;55283;51.466;5.478;2023-02-17T04:52:51;101724.25;;;20.22;44.55
68366;BME280;55283;51.466;5.478;2023-02-17T04:55:17;101730.97;;;20.25;44.47
68366;BME280;55283;51.466;5.478;2023-02-17T04:57:43;101730.19;;;20.24;44.49
68366;BME280;55283;51.466;5.478;2023-02-17T05:00:09;101729.75;;;20.29;44.47
68366;BME280;55283;51.466;5.478;2023-02-17T05:02:34;101728.56;;;20.27;44.29
68366;BME280;55283;51.466;5.478;2023-02-17T05:05:00;101727.78;;;20.26;44.21
68366;BME280;55283;51.466;5.478;2023-02-17T05:07:25;101721.78;;;20.28;44.43
68366;BME280;55283;51.466;5.478;2023-02-17T05:09:51;101719.44;;;20.23;44.26
68366;BME280;55283;51.466;5.478;2023-02-17T05:12:18;101726.59;;;20.24;44.52
68366;BME280;55283;51.466;5.478;2023-02-17T05:14:43;101713.06;;;20.19;44.34
68366;BME280;55283;51.466;5.478;2023-02-17T05:17:09;101710.59;;;20.24;44.45
68366;BME280;55283;51.466;5.478;2023-02-17T05:19:34;101697.81;;;20.23;44.40
68366;BME280;55283;51.466;5.478;2023-02-17T05:21:59;101681.59;;;20.11;44.57
68366;BME280;55283;51.466;5.478;2023-02-17T05:24:25;101694.31;;;20.16;44.24
68366;BME280;55283;51.466;5.478;2023-02-17T05:26:50;101702.72;;;20.16;44.32
68366;BME280;55283;51.466;5.478;2023-02-17T05:29:16;101704.66;;;20.22;44.25
68366;BME280;55283;51.466;5.478;2023-02-17T05:31:41;101701.41;;;20.24;44.53
68366;BME280;55283;51.466;5.478;2023-02-17T05:34:06;101695.03;;;20.23;44.43
68366;BME280;55283;51.466;5.478;2023-02-17T05:36:32;101695.44;;;20.22;44.28
68366;BME280;55283;51.466;5.478;2023-02-17T05:38:57;101700.69;;;20.20;44.52
68366;BME280;55283;51.466;5.478;2023-02-17T05:41:23;101699.03;;;20.22;44.47
68366;BME280;55283;51.466;5.478;2023-02-17T05:43:48;101701.88;;;20.19;44.40
68366;BME280;55283;51.466;5.478;2023-02-17T05:46:13;101702.25;;;20.21;44.46
68366;BME280;55283;51.466;5.478;2023-02-17T05:48:39;101713.13;;;20.15;44.37
68366;BME280;55283;51.466;5.478;2023-02-17T05:51:05;101725.44;;;20.21;44.50
68366;BME280;55283;51.466;5.478;2023-02-17T05:53:30;101721.06;;;20.20;44.45
68366;BME280;55283;51.466;5.478;2023-02-17T05:55:55;101722.63;;;20.21;44.45
68366;BME280;55283;51.466;5.478;2023-02-17T05:58:21;101717.47;;;20.20;44.53
68366;BME280;55283;51.466;5.478;2023-02-17T06:00:47;101692.41;;;20.09;44.55
68366;BME280;55283;51.466;5.478;2023-02-17T06:03:12;101701.88;;;20.19;44.51
68366;BME280;55283;51.466;5.478;2023-02-17T06:05:38;101700.75;;;20.12;44.34
68366;BME280;55283;51.466;5.478;2023-02-17T06:08:04;101717.81;;;20.22;44.40
68366;BME280;55283;51.466;5.478;2023-02-17T06:10:29;101713.50;;;20.17;44.38
68366;BME280;55283;51.466;5.478;2023-02-17T06:12:55;101699.44;;;20.21;44.48
68366;BME280;55283;51.466;5.478;2023-02-17T06:15:20;101689.94;;;20.15;44.28
68366;BME280;55283;51.466;5.478;2023-02-17T06:17:45;101709.06;;;20.20;44.35
68366;BME280;55283;51.466;5.478;2023-02-17T06:20:11;101703.47;;;20.20;44.25
68366;BME280;55283;51.466;5.478;2023-02-17T06:22:37;101714.25;;;20.21;44.32
68366;BME280;55283;51.466;5.478;2023-02-17T06:25:02;101689.56;;;20.12;44.40
68366;BME280;55283;51.466;5.478;2023-02-17T06:27:28;101693.94;;;20.13;44.37
68366;BME280;55283;51.466;5.478;2023-02-17T06:29:53;101696.38;;;20.11;44.52
68366;BME280;55283;51.466;5.478;2023-02-17T06:32:19;101704.66;;;20.19;44.82
68366;BME280;55283;51.466;5.478;2023-02-17T06:34:44;101701.84;;;20.22;44.71
68366;BME280;55283;51.466;5.478;2023-02-17T06:37:09;101692.34;;;20.12;44.98
68366;BME280;55283;51.466;5.478;2023-02-17T06:39:35;101698.72;;;20.17;45.06
68366;BME280;55283;51.466;5.478;2023-02-17T06:42:00;101693.28;;;20.02;45.64
68366;BME280;55283;51.466;5.478;2023-02-17T06:44:25;101719.16;;;20.10;45.85
68366;BME280;55283;51.466;5.478;2023-02-17T06:46:51;101709.25;;;20.05;45.97
68366;BME280;55283;51.466;5.478;2023-02-17T06:49:17;101687.25;;;20.04;45.76
68366;BME280;55283;51.466;5.478;2023-02-17T06:51:42;101682.13;;;19.99;45.76
68366;BME280;55283;51.466;5.478;2023-02-17T06:54:09;101702.81;;;20.08;46.25
68366;BME280;55283;51.466;5.478;2023-02-17T06:56:34;101689.81;;;20.22;45.67
68366;BME280;55283;51.466;5.478;2023-02-17T06:59:01;101694.75;;;20.14;45.86
68366;BME280;55283;51.466;5.478;2023-02-17T07:01:26;101674.06;;;20.04;45.93
68366;BME280;55283;51.466;5.478;2023-02-17T07:03:53;101693.13;;;20.17;46.11
68366;BME280;55283;51.466;5.478;2023-02-17T07:06:20;101692.28;;;20.20;46.56
68366;BME280;55283;51.466;5.478;2023-02-17T07:08:46;101698.59;;;20.24;46.04
68366;BME280;55283;51.466;5.478;2023-02-17T07:11:13;101690.22;;;20.24;46.35
68366;BME280;55283;51.466;5.478;2023-02-17T07:13:39;101696.66;;;20.21;46.61
68366;BME280;55283;51.466;5.478;2023-02-17T07:16:08;101712.88;;;20.37;46.48
68366;BME280;55283;51.466;5.478;2023-02-17T07:18:33;101717.75;;;20.29;45.56
68366;BME280;55283;51.466;5.478;2023-02-17T07:20:59;101705.56;;;20.12;44.86
68366;BME280;55283;51.466;5.478;2023-02-17T07:23:24;101722.78;;;20.10;44.60
68366;BME280;55283;51.466;5.478;2023-02-17T07:25:50;101715.19;;;20.07;44.77
68366;BME280;55283;51.466;5.478;2023-02-17T07:28:16;101697.38;;;19.94;44.74
68366;BME280;55283;51.466;5.478;2023-02-17T07:30:42;101727.63;;;20.06;44.98
68366;BME280;55283;51.466;5.478;2023-02-17T07:33:08;101714.06;;;20.01;45.12
68366;BME280;55283;51.466;5.478;2023-02-17T07:35:34;101710.88;;;20.03;44.96
68366;BME280;55283;51.466;5.478;2023-02-17T07:38:00;101693.28;;;20.02;45.13
68366;BME280;55283;51.466;5.478;2023-02-17T07:40:26;101684.97;;;19.95;45.14
68366;BME280;55283;51.466;5.478;2023-02-17T07:42:52;101694.13;;;19.99;45.51
68366;BME280;55283;51.466;5.478;2023-02-17T07:45:18;101700.13;;;19.98;45.38
68366;BME280;55283;51.466;5.478;2023-02-17T07:47:44;101680.63;;;19.90;45.29
68366;BME280;55283;51.466;5.478;2023-02-17T07:50:10;101685.78;;;19.92;45.32
68366;BME280;55283;51.466;5.478;2023-02-17T07:52:36;101679.38;;;19.95;45.21
68366;BME280;55283;51.466;5.478;2023-02-17T07:55:02;101688.13;;;19.97;45.14
68366;BME280;55283;51.466;5.478;2023-02-17T07:57:28;101692.53;;;19.98;45.27
68366;BME280;55283;51.466;5.478;2023-02-17T07:59:54;101696.53;;;19.97;45.30
68366;BME280;55283;51.466;5.478;2023-02-17T08:02:20;101691.81;;;19.90;45.12
68366;BME280;55283;51.466;5.478;2023-02-17T08:04:45;101704.53;;;19.95;45.49
68366;BME280;55283;51.466;5.478;2023-02-17T08:07:11;101683.44;;;19.87;45.99
68366;BME280;55283;51.466;5.478;2023-02-17T08:09:36;101688.69;;;19.85;45.90
68366;BME280;55283;51.466;5.478;2023-02-17T08:12:20;101701.34;;;19.97;45.59
68366;BME280;55283;51.466;5.478;2023-02-17T08:15:06;101697.00;;;19.92;45.89
68366;BME280;55283;51.466;5.478;2023-02-17T08:17:33;101711.59;;;20.07;46.18
68366;BME280;55283;51.466;5.478;2023-02-17T08:19:59;101710.78;;;20.10;46.08
68366;BME280;55283;51.466;5.478;2023-02-17T08:22:24;101724.44;;;20.04;46.05
68366;BME280;55283;51.466;5.478;2023-02-17T08:24:49;101712.03;;;20.05;46.36
68366;BME280;55283;51.466;5.478;2023-02-17T08:27:16;101704.81;;;20.08;46.49
68366;BME280;55283;51.466;5.478;2023-02-17T08:29:42;101722.34;;;20.12;46.54
68366;BME280;55283;51.466;5.478;2023-02-17T08:32:08;101715.50;;;20.17;46.53
68366;BME280;55283;51.466;5.478;2023-02-17T08:34:34;101708.34;;;20.12;46.60
68366;BME280;55283;51.466;5.478;2023-02-17T08:37:00;101710.38;;;20.11;46.94
68366;BME280;55283;51.466;5.478;2023-02-17T08:39:26;101703.50;;;20.16;46.60
68366;BME280;55283;51.466;5.478;2023-02-17T08:41:52;101710.75;;;20.13;46.67
68366;BME280;55283;51.466;5.478;2023-02-17T08:44:18;101716.97;;;20.25;46.51
68366;BME280;55283;51.466;5.478;2023-02-17T08:46:45;101716.63;;;20.23;46.46
68366;BME280;55283;51.466;5.478;2023-02-17T08:49:12;101721.00;;;20.24;46.41
68366;BME280;55283;51.466;5.478;2023-02-17T08:51:38;101717.41;;;20.23;46.61
68366;BME280;55283;51.466;5.478;2023-02-17T08:54:04;101716.97;;;20.28;46.46
68366;BME280;55283;51.466;5.478;2023-02-17T08:56:31;101721.44;;;20.22;46.41
68366;BME280;55283;51.466;5.478;2023-02-17T08:58:57;101737.72;;;20.31;46.36
68366;BME280;55283;51.466;5.478;2023-02-17T09:01:23;101700.19;;;20.25;46.32
68366;BME280;55283;51.466;5.478;2023-02-17T09:03:50;101714.16;;;20.28;46.44
68366;BME280;55283;51.466;5.478;2023-02-17T09:06:16;101713.78;;;20.26;46.64
68366;BME280;55283;51.466;5.478;2023-02-17T09:08:43;101723.19;;;20.43;46.47
68366;BME280;55283;51.466;5.478;2023-02-17T09:11:08;101723.53;;;20.49;46.23
68366;BME280;55283;51.466;5.478;2023-02-17T09:13:34;101727.53;;;20.48;46.53
68366;BME280;55283;51.466;5.478;2023-02-17T09:16:00;101711.63;;;20.41;46.68
68366;BME280;55283;51.466;5.478;2023-02-17T09:18:26;101718.34;;;20.47;46.19
68366;BME280;55283;51.466;5.478;2023-02-17T09:20:51;101741.06;;;20.53;46.44
68366;BME280;55283;51.466;5.478;2023-02-17T09:23:18;101753.81;;;20.57;46.34
68366;BME280;55283;51.466;5.478;2023-02-17T09:25:43;101744.25;;;20.55;46.25
68366;BME280;55283;51.466;5.478;2023-02-17T09:28:09;101755.78;;;20.61;46.25
68366;BME280;55283;51.466;5.478;2023-02-17T09:30:35;101767.84;;;20.57;46.38
68366;BME280;55283;51.466;5.478;2023-02-17T09:33:01;101769.03;;;20.56;46.30
68366;BME280;55283;51.466;5.478;2023-02-17T09:35:26;101778.19;;;20.61;46.58
68366;BME280;55283;51.466;5.478;2023-02-17T09:37:52;101765.75;;;20.62;46.56
68366;BME280;55283;51.466;5.478;2023-02-17T09:40:21;101767.06;;;20.53;46.40
68366;BME280;55283;51.466;5.478;2023-02-17T09:42:47;101773.44;;;20.57;46.72
68366;BME280;55283;51.466;5.478;2023-02-17T09:45:34;101776.97;;;20.62;46.47
68366;BME280;55283;51.466;5.478;2023-02-17T09:48:04;101755.59;;;20.44;46.49
68366;BME280;55283;51.466;5.478;2023-02-17T09:50:40;101764.69;;;20.52;46.83
68366;BME280;55283;51.466;5.478;2023-02-17T09:53:18;101770.63;;;20.57;46.78
68366;BME280;55283;51.466;5.478;2023-02-17T09:55:52;101785.47;;;20.54;46.86
68366;BME280;55283;51.466;5.478;2023-02-17T09:58:23;101771.75;;;20.64;46.95
68366;BME280;55283;51.466;5.478;2023-02-17T10:00:53;101774.16;;;20.62;46.66
68366;BME280;55283;51.466;5.478;2023-02-17T10:03:30;101768.94;;;20.64;46.77
68366;BME280;55283;51.466;5.478;2023-02-17T10:08:44;101770.25;;;20.55;46.74
68366;BME280;55283;51.466;5.478;2023-02-17T10:14:00;101776.56;;;20.63;46.65
68366;BME280;55283;51.466;5.478;2023-02-17T10:16:30;101785.31;;;20.65;46.69
68366;BME280;55283;51.466;5.478;2023-02-17T10:19:48;101781.34;;;20.63;46.46
68366;BME280;55283;51.466;5.478;2023-02-17T10:21:56;101784.16;;;20.63;46.65
68366;BME280;55283;51.466;5.478;2023-02-17T10:24:23;101798.09;;;20.70;46.54
68366;BME280;55283;51.466;5.478;2023-02-17T10:30:10;101771.69;;;20.67;46.79
68366;BME280;55283;51.466;5.478;2023-02-17T10:33:12;101771.63;;;20.71;46.71
68366;BME280;55283;51.466;5.478;2023-02-17T10:35:52;101785.31;;;20.65;46.88
68366;BME280;55283;51.466;5.478;2023-02-17T10:41:04;101783.00;;;20.60;47.19
68366;BME280;55283;51.466;5.478;2023-02-17T10:43:33;101787.78;;;20.60;47.32
68366;BME280;55283;51.466;5.478;2023-02-17T10:46:02;101794.66;;;20.55;47.08
68366;BME280;55283;51.466;5.478;2023-02-17T10:48:37;101792.19;;;20.61;47.18
68366;BME280;55283;51.466;5.478;2023-02-17T10:51:05;101785.84;;;20.56;46.94
68366;BME280;55283;51.466;5.478;2023-02-17T10:53:37;101795.47;;;20.55;46.79
68366;BME280;55283;51.466;5.478;2023-02-17T11:01:16;101792.19;;;20.61;47.19
68366;BME280;55283;51.466;5.478;2023-02-17T11:03:41;101789.06;;;20.55;47.33
68366;BME280;55283;51.466;5.478;2023-02-17T11:06:19;101798.72;;;20.50;47.00
68366;BME280;55283;51.466;5.478;2023-02-17T11:08:59;101804.66;;;20.56;47.23
68366;BME280;55283;51.466;5.478;2023-02-17T11:11:31;101812.72;;;20.50;47.36
68366;BME280;55283;51.466;5.478;2023-02-17T11:16:26;101787.19;;;20.45;47.49
68366;BME280;55283;51.466;5.478;2023-02-17T11:18:52;101787.28;;;20.38;47.37
68366;BME280;55283;51.466;5.478;2023-02-17T11:21:19;101776.59;;;20.25;47.80
68366;BME280;55283;51.466;5.478;2023-02-17T11:23:51;101785.84;;;20.22;47.87
68366;BME280;55283;51.466;5.478;2023-02-17T11:26:24;101791.03;;;20.20;47.67
68366;BME280;55283;51.466;5.478;2023-02-17T11:28:50;101779.84;;;20.20;48.18
68366;BME280;55283;51.466;5.478;2023-02-17T11:31:24;101778.28;;;20.16;48.11
68366;BME280;55283;51.466;5.478;2023-02-17T11:33:50;101782.66;;;20.20;48.41
68366;BME280;55283;51.466;5.478;2023-02-17T11:36:27;101773.53;;;20.12;48.38
68366;BME280;55283;51.466;5.478;2023-02-17T11:38:53;101759.91;;;20.15;48.43
68366;BME280;55283;51.466;5.478;2023-02-17T11:41:19;101761.13;;;20.13;48.32
68366;BME280;55283;51.466;5.478;2023-02-17T11:43:56;101757.91;;;20.15;48.43
68366;BME280;55283;51.466;5.478;2023-02-17T11:46:42;101758.28;;;20.17;48.53
68366;BME280;55283;51.466;5.478;2023-02-17T11:55:10;101762.03;;;20.41;48.33
68366;BME280;55283;51.466;5.478;2023-02-17T11:57:42;101760.41;;;20.44;48.57
68366;BME280;55283;51.466;5.478;2023-02-17T12:00:31;101739.44;;;20.55;48.74
68366;BME280;55283;51.466;5.478;2023-02-17T12:05:59;101772.22;;;20.58;48.66
68366;BME280;55283;51.466;5.478;2023-02-17T12:08:33;101786.94;;;20.63;48.50
68366;BME280;55283;51.466;5.478;2023-02-17T12:11:19;101761.00;;;20.58;48.30
68366;BME280;55283;51.466;5.478;2023-02-17T12:16:45;101765.97;;;20.78;48.04
68366;BME280;55283;51.466;5.478;2023-02-17T12:19:30;101763.16;;;20.78;48.04
68366;BME280;55283;51.466;5.478;2023-02-17T12:22:16;101767.22;;;20.73;47.79
68366;BME280;55283;51.466;5.478;2023-02-17T12:25:14;101757.41;;;20.58;47.88
68366;BME280;55283;51.466;5.478;2023-02-17T12:30:45;101745.44;;;20.54;47.29
68366;BME280;55283;51.466;5.478;2023-02-17T12:36:03;101769.34;;;20.66;47.29
68366;BME280;55283;51.466;5.478;2023-02-17T12:38:33;101770.19;;;20.59;46.72
68366;BME280;55283;51.466;5.478;2023-02-17T12:41:05;101780.34;;;20.49;45.94
68366;BME280;55283;51.466;5.478;2023-02-17T12:46:28;101777.44;;;20.56;46.15
68366;BME280;55283;51.466;5.478;2023-02-17T12:51:29;101790.66;;;20.56;46.56
68366;BME280;55283;51.466;5.478;2023-02-17T12:56:42;101785.03;;;20.56;46.15
68366;BME280;55283;51.466;5.478;2023-02-17T12:59:17;101781.84;;;20.54;46.18
68366;BME280;55283;51.466;5.478;2023-02-17T13:02:00;101801.91;;;20.52;46.15
68366;BME280;55283;51.466;5.478;2023-02-17T13:04:27;101791.50;;;20.53;46.34
68366;BME280;55283;51.466;5.478;2023-02-17T13:09:46;101803.13;;;20.51;46.22
68366;BME280;55283;51.466;5.478;2023-02-17T13:17:28;101822.34;;;20.49;46.12
68366;BME280;55283;51.466;5.478;2023-02-17T13:22:39;101819.22;;;20.44;46.41
68366;BME280;55283;51.466;5.478;2023-02-17T13:25:06;101819.25;;;20.40;46.38
68366;BME280;55283;51.466;5.478;2023-02-17T13:27:37;101815.63;;;20.43;46.41
68366;BME280;55283;51.466;5.478;2023-02-17T13:32:31;101826.81;;;20.43;46.33
68366;BME280;55283;51.466;5.478;2023-02-17T13:39:56;101844.03;;;20.42;46.34
68366;BME280;55283;51.466;5.478;2023-02-17T13:42:39;101855.66;;;20.40;46.17
68366;BME280;55283;51.466;5.478;2023-02-17T13:45:28;101856.84;;;20.43;46.10
68366;BME280;55283;51.466;5.478;2023-02-17T13:47:58;101857.69;;;20.40;46.11
68366;BME280;55283;51.466;5.478;2023-02-17T13:50:33;101876.09;;;20.37;45.92
68366;BME280;55283;51.466;5.478;2023-02-17T13:53:00;101866.47;;;20.38;46.23
68366;BME280;55283;51.466;5.478;2023-02-17T13:55:26;101877.28;;;20.40;45.93
68366;BME280;55283;51.466;5.478;2023-02-17T13:57:57;101858.13;;;20.31;46.31
68366;BME280;55283;51.466;5.478;2023-02-17T14:00:24;101889.28;;;20.37;46.19
68366;BME280;55283;51.466;5.478;2023-02-17T14:03:51;101870.06;;;20.39;46.03
68366;BME280;55283;51.466;5.478;2023-02-17T14:06:17;101870.13;;;20.31;46.10
68366;BME280;55283;51.466;5.478;2023-02-17T14:08:44;101882.50;;;20.34;46.19
68366;BME280;55283;51.466;5.478;2023-02-17T14:11:16;101871.31;;;20.34;46.31
68366;BME280;55283;51.466;5.478;2023-02-17T14:13:45;101867.38;;;20.28;46.16
68366;BME280;55283;51.466;5.478;2023-02-17T14:16:34;101879.72;;;20.34;46.16
68366;BME280;55283;51.466;5.478;2023-02-17T14:19:09;101881.31;;;20.31;46.03
68366;BME280;55283;51.466;5.478;2023-02-17T14:21:39;101892.53;;;20.31;46.15
68366;BME280;55283;51.466;5.478;2023-02-17T14:24:06;101901.34;;;20.30;46.07
68366;BME280;55283;51.466;5.478;2023-02-17T14:26:42;101898.91;;;20.32;46.18
68366;BME280;55283;51.466;5.478;2023-02-17T14:29:09;101901.72;;;20.32;45.84
68366;BME280;55283;51.466;5.478;2023-02-17T14:31:42;101898.50;;;20.33;46.16